sensor_id;sensor_type;location;lat;lon;timestamp;temperature;humidity
42187;DHT22;27858;51.414;0.018;2022-11-04T00:02:07;9.40;99.90
42187;DHT22;27858;51.414;0.018;2022-11-04T00:04:35;9.20;99.90
42187;DHT22;27858;51.414;0.018;2022-11-04T00:07:01;9.40;99.90
42187;DHT22;27858;51.414;0.018;2022-11-04T00:09:48;9.20;99.90
42187;DHT22;27858;51.414;0.018;2022-11-04T00:12:15;9.50;99.90
42187;DHT22;27858;51.414;0.018;2022-11-04T00:14:51;9.30;99.90
42187;DHT22;27858;51.414;0.018;2022-11-04T00:17:18;9.40;99.90
42187;DHT22;27858;51.414;0.018;2022-11-04T00:19:50;9.50;99.90
42187;DHT22;27858;51.414;0.018;2022-11-04T00:22:47;9.50;99.90
42187;DHT22;27858;51.414;0.018;2022-11-04T00:25:33;9.50;99.90
42187;DHT22;27858;51.414;0.018;2022-11-04T00:28:18;9.50;99.90
42187;DHT22;27858;51.414;0.018;2022-11-04T00:31:05;9.40;99.90
42187;DHT22;27858;51.414;0.018;2022-11-04T00:33:53;9.60;99.90
42187;DHT22;27858;51.414;0.018;2022-11-04T00:36:21;9.60;99.90
42187;DHT22;27858;51.414;0.018;2022-11-04T00:38:48;9.60;99.90
42187;DHT22;27858;51.414;0.018;2022-11-04T00:41:15;9.30;99.90
42187;DHT22;27858;51.414;0.018;2022-11-04T00:44:05;9.40;99.90
42187;DHT22;27858;51.414;0.018;2022-11-04T00:46:32;9.40;99.90
42187;DHT22;27858;51.414;0.018;2022-11-04T00:48:59;9.50;99.90
42187;DHT22;27858;51.414;0.018;2022-11-04T00:51:26;9.40;99.90
42187;DHT22;27858;51.414;0.018;2022-11-04T00:53:53;9.50;99.90
42187;DHT22;27858;51.414;0.018;2022-11-04T00:56:21;9.60;99.90
42187;DHT22;27858;51.414;0.018;2022-11-04T00:58:48;9.60;99.90
42187;DHT22;27858;51.414;0.018;2022-11-04T01:01:16;9.40;99.90
42187;DHT22;27858;51.414;0.018;2022-11-04T01:03:49;9.40;99.90
42187;DHT22;27858;51.414;0.018;2022-11-04T01:06:17;9.40;99.90
42187;DHT22;27858;51.414;0.018;2022-11-04T01:08:44;9.60;99.90
42187;DHT22;27858;51.414;0.018;2022-11-04T01:11:12;9.50;99.90
42187;DHT22;27858;51.414;0.018;2022-11-04T01:13:39;9.60;99.90
42187;DHT22;27858;51.414;0.018;2022-11-04T01:16:08;9.60;99.90
42187;DHT22;27858;51.414;0.018;2022-11-04T01:18:36;9.50;99.90
42187;DHT22;27858;51.414;0.018;2022-11-04T01:21:05;9.60;99.90
42187;DHT22;27858;51.414;0.018;2022-11-04T01:23:35;9.40;99.90
42187;DHT22;27858;51.414;0.018;2022-11-04T01:26:13;9.40;99.90
42187;DHT22;27858;51.414;0.018;2022-11-04T01:28:41;9.50;99.90
42187;DHT22;27858;51.414;0.018;2022-11-04T01:31:09;9.50;99.90
42187;DHT22;27858;51.414;0.018;2022-11-04T01:33:37;9.40;99.90
42187;DHT22;27858;51.414;0.018;2022-11-04T01:36:05;9.50;99.90
42187;DHT22;27858;51.414;0.018;2022-11-04T01:38:33;9.50;99.90
42187;DHT22;27858;51.414;0.018;2022-11-04T01:41:00;9.60;99.90
42187;DHT22;27858;51.414;0.018;2022-11-04T01:43:56;9.60;99.90
42187;DHT22;27858;51.414;0.018;2022-11-04T01:46:44;9.40;99.90
42187;DHT22;27858;51.414;0.018;2022-11-04T01:51:55;9.30;99.90
42187;DHT22;27858;51.414;0.018;2022-11-04T01:54:25;9.50;99.90
42187;DHT22;27858;51.414;0.018;2022-11-04T01:56:53;9.30;99.90
42187;DHT22;27858;51.414;0.018;2022-11-04T01:59:24;9.50;99.90
42187;DHT22;27858;51.414;0.018;2022-11-04T02:01:53;9.40;99.90
42187;DHT22;27858;51.414;0.018;2022-11-04T02:04:20;9.40;99.90
42187;DHT22;27858;51.414;0.018;2022-11-04T02:06:56;9.40;99.90
42187;DHT22;27858;51.414;0.018;2022-11-04T02:09:25;9.40;99.90
42187;DHT22;27858;51.414;0.018;2022-11-04T02:11:52;9.20;99.90
42187;DHT22;27858;51.414;0.018;2022-11-04T02:14:38;9.20;99.90
42187;DHT22;27858;51.414;0.018;2022-11-04T02:30:47;9.40;99.90
42187;DHT22;27858;51.414;0.018;2022-11-04T02:33:17;9.20;99.90
42187;DHT22;27858;51.414;0.018;2022-11-04T02:36:03;9.20;99.90
42187;DHT22;27858;51.414;0.018;2022-11-04T02:38:56;9.30;99.90
42187;DHT22;27858;51.414;0.018;2022-11-04T02:41:46;9.20;99.90
42187;DHT22;27858;51.414;0.018;2022-11-04T02:44:30;9.20;99.90
42187;DHT22;27858;51.414;0.018;2022-11-04T02:47:14;9.20;99.90
42187;DHT22;27858;51.414;0.018;2022-11-04T02:49:50;9.40;99.90
42187;DHT22;27858;51.414;0.018;2022-11-04T02:52:44;9.40;99.90
42187;DHT22;27858;51.414;0.018;2022-11-04T02:55:39;9.40;99.90
42187;DHT22;27858;51.414;0.018;2022-11-04T02:58:13;9.40;99.90
42187;DHT22;27858;51.414;0.018;2022-11-04T03:00:42;9.50;99.90
42187;DHT22;27858;51.414;0.018;2022-11-04T03:03:15;9.50;99.90
42187;DHT22;27858;51.414;0.018;2022-11-04T03:05:45;9.50;99.90
42187;DHT22;27858;51.414;0.018;2022-11-04T03:08:38;9.50;99.90
42187;DHT22;27858;51.414;0.018;2022-11-04T03:11:13;9.40;99.90
42187;DHT22;27858;51.414;0.018;2022-11-04T03:13:54;9.30;99.90
42187;DHT22;27858;51.414;0.018;2022-11-04T03:16:49;9.20;99.90
42187;DHT22;27858;51.414;0.018;2022-11-04T03:22:06;9.20;99.90
42187;DHT22;27858;51.414;0.018;2022-11-04T03:24:35;9.20;99.90
42187;DHT22;27858;51.414;0.018;2022-11-04T03:29:45;9.10;99.90
42187;DHT22;27858;51.414;0.018;2022-11-04T03:35:01;9.20;99.90
42187;DHT22;27858;51.414;0.018;2022-11-04T03:37:28;9.00;99.90
42187;DHT22;27858;51.414;0.018;2022-11-04T03:39:55;9.00;99.90
42187;DHT22;27858;51.414;0.018;2022-11-04T03:42:22;9.10;99.90
42187;DHT22;27858;51.414;0.018;2022-11-04T03:44:54;8.90;99.90
42187;DHT22;27858;51.414;0.018;2022-11-04T03:47:25;9.00;99.90
42187;DHT22;27858;51.414;0.018;2022-11-04T03:49:59;8.90;99.90
42187;DHT22;27858;51.414;0.018;2022-11-04T03:52:28;8.80;99.90
42187;DHT22;27858;51.414;0.018;2022-11-04T03:54:55;9.00;99.90
42187;DHT22;27858;51.414;0.018;2022-11-04T04:00:17;8.90;99.90
42187;DHT22;27858;51.414;0.018;2022-11-04T04:05:25;8.90;99.90
42187;DHT22;27858;51.414;0.018;2022-11-04T04:08:11;8.70;99.90
42187;DHT22;27858;51.414;0.018;2022-11-04T04:13:36;8.60;99.90
42187;DHT22;27858;51.414;0.018;2022-11-04T04:16:38;8.80;99.90
42187;DHT22;27858;51.414;0.018;2022-11-04T04:19:24;8.80;99.90
42187;DHT22;27858;51.414;0.018;2022-11-04T04:22:19;8.60;99.90
42187;DHT22;27858;51.414;0.018;2022-11-04T04:24:51;8.70;99.90
42187;DHT22;27858;51.414;0.018;2022-11-04T04:27:38;8.60;99.90
42187;DHT22;27858;51.414;0.018;2022-11-04T04:30:09;8.70;99.90
42187;DHT22;27858;51.414;0.018;2022-11-04T04:32:43;8.70;99.90
42187;DHT22;27858;51.414;0.018;2022-11-04T04:35:11;8.70;99.90
42187;DHT22;27858;51.414;0.018;2022-11-04T04:38:00;8.60;99.90
42187;DHT22;27858;51.414;0.018;2022-11-04T04:41:01;8.70;99.90
42187;DHT22;27858;51.414;0.018;2022-11-04T04:43:48;8.70;99.90
42187;DHT22;27858;51.414;0.018;2022-11-04T04:46:34;8.70;99.90
42187;DHT22;27858;51.414;0.018;2022-11-04T04:49:07;8.50;99.90
42187;DHT22;27858;51.414;0.018;2022-11-04T04:51:38;8.40;99.90
42187;DHT22;27858;51.414;0.018;2022-11-04T04:54:05;8.40;99.90
42187;DHT22;27858;51.414;0.018;2022-11-04T04:56:32;8.30;99.90
42187;DHT22;27858;51.414;0.018;2022-11-04T04:58:59;8.50;99.90
42187;DHT22;27858;51.414;0.018;2022-11-04T05:01:26;8.50;99.90
42187;DHT22;27858;51.414;0.018;2022-11-04T05:03:53;8.50;99.90
42187;DHT22;27858;51.414;0.018;2022-11-04T05:06:20;8.30;99.90
42187;DHT22;27858;51.414;0.018;2022-11-04T05:08:47;8.40;99.90
42187;DHT22;27858;51.414;0.018;2022-11-04T05:11:15;8.20;99.90
42187;DHT22;27858;51.414;0.018;2022-11-04T05:13:46;8.20;99.90
42187;DHT22;27858;51.414;0.018;2022-11-04T05:16:12;8.30;99.90
42187;DHT22;27858;51.414;0.018;2022-11-04T05:18:39;8.30;99.90
42187;DHT22;27858;51.414;0.018;2022-11-04T05:21:09;8.30;99.90
42187;DHT22;27858;51.414;0.018;2022-11-04T05:23:36;8.20;99.90
42187;DHT22;27858;51.414;0.018;2022-11-04T05:26:04;8.10;99.90
42187;DHT22;27858;51.414;0.018;2022-11-04T05:28:31;8.10;99.90
42187;DHT22;27858;51.414;0.018;2022-11-04T05:31:03;8.20;99.90
42187;DHT22;27858;51.414;0.018;2022-11-04T05:33:30;8.20;99.90
42187;DHT22;27858;51.414;0.018;2022-11-04T05:36:12;8.20;99.90
42187;DHT22;27858;51.414;0.018;2022-11-04T05:38:40;8.00;99.90
42187;DHT22;27858;51.414;0.018;2022-11-04T05:41:09;8.20;99.90
42187;DHT22;27858;51.414;0.018;2022-11-04T05:43:37;8.10;99.90
42187;DHT22;27858;51.414;0.018;2022-11-04T05:46:04;7.80;99.90
42187;DHT22;27858;51.414;0.018;2022-11-04T05:48:30;8.00;99.90
42187;DHT22;27858;51.414;0.018;2022-11-04T05:51:05;7.80;99.90
42187;DHT22;27858;51.414;0.018;2022-11-04T05:53:32;7.80;99.90
42187;DHT22;27858;51.414;0.018;2022-11-04T05:55:59;8.00;99.90
42187;DHT22;27858;51.414;0.018;2022-11-04T05:58:26;8.00;99.90
42187;DHT22;27858;51.414;0.018;2022-11-04T06:00:53;8.00;99.90
42187;DHT22;27858;51.414;0.018;2022-11-04T06:03:19;7.90;99.90
42187;DHT22;27858;51.414;0.018;2022-11-04T06:05:46;7.90;99.90
42187;DHT22;27858;51.414;0.018;2022-11-04T06:08:13;7.70;99.90
42187;DHT22;27858;51.414;0.018;2022-11-04T06:10:42;7.80;99.90
42187;DHT22;27858;51.414;0.018;2022-11-04T06:13:08;7.80;99.90
42187;DHT22;27858;51.414;0.018;2022-11-04T06:15:35;7.70;99.90
42187;DHT22;27858;51.414;0.018;2022-11-04T06:18:02;7.70;99.90
42187;DHT22;27858;51.414;0.018;2022-11-04T06:20:29;7.80;99.90
42187;DHT22;27858;51.414;0.018;2022-11-04T06:22:56;7.80;99.90
42187;DHT22;27858;51.414;0.018;2022-11-04T06:25:23;7.60;99.90
42187;DHT22;27858;51.414;0.018;2022-11-04T06:27:49;7.50;99.90
42187;DHT22;27858;51.414;0.018;2022-11-04T06:30:16;7.70;99.90
42187;DHT22;27858;51.414;0.018;2022-11-04T06:32:43;7.50;99.90
42187;DHT22;27858;51.414;0.018;2022-11-04T06:35:10;7.70;99.90
42187;DHT22;27858;51.414;0.018;2022-11-04T06:37:37;7.70;99.90
42187;DHT22;27858;51.414;0.018;2022-11-04T06:40:04;7.60;99.90
42187;DHT22;27858;51.414;0.018;2022-11-04T06:42:31;7.50;99.90
42187;DHT22;27858;51.414;0.018;2022-11-04T06:44:58;7.50;99.90
42187;DHT22;27858;51.414;0.018;2022-11-04T06:47:25;7.70;99.90
42187;DHT22;27858;51.414;0.018;2022-11-04T06:49:52;7.50;99.90
42187;DHT22;27858;51.414;0.018;2022-11-04T06:52:18;7.40;99.90
42187;DHT22;27858;51.414;0.018;2022-11-04T06:54:45;7.60;99.90
42187;DHT22;27858;51.414;0.018;2022-11-04T06:57:13;7.40;99.90
42187;DHT22;27858;51.414;0.018;2022-11-04T06:59:40;7.30;99.90
42187;DHT22;27858;51.414;0.018;2022-11-04T07:02:09;7.50;99.90
42187;DHT22;27858;51.414;0.018;2022-11-04T07:04:36;7.30;99.90
42187;DHT22;27858;51.414;0.018;2022-11-04T07:07:03;7.30;99.90
42187;DHT22;27858;51.414;0.018;2022-11-04T07:09:30;7.50;99.90
42187;DHT22;27858;51.414;0.018;2022-11-04T07:11:57;7.40;99.90
42187;DHT22;27858;51.414;0.018;2022-11-04T07:14:24;7.20;99.90
42187;DHT22;27858;51.414;0.018;2022-11-04T07:16:51;7.40;99.90
42187;DHT22;27858;51.414;0.018;2022-11-04T07:19:17;7.20;99.90
42187;DHT22;27858;51.414;0.018;2022-11-04T07:21:44;7.40;99.90
42187;DHT22;27858;51.414;0.018;2022-11-04T07:24:11;7.20;99.90
42187;DHT22;27858;51.414;0.018;2022-11-04T07:26:38;7.10;99.90
42187;DHT22;27858;51.414;0.018;2022-11-04T07:29:05;7.20;99.90
42187;DHT22;27858;51.414;0.018;2022-11-04T07:31:33;7.10;99.90
42187;DHT22;27858;51.414;0.018;2022-11-04T07:34:00;7.30;99.90
42187;DHT22;27858;51.414;0.018;2022-11-04T07:36:26;7.30;99.90
42187;DHT22;27858;51.414;0.018;2022-11-04T07:38:54;7.20;99.90
42187;DHT22;27858;51.414;0.018;2022-11-04T07:41:21;7.30;99.90
42187;DHT22;27858;51.414;0.018;2022-11-04T07:43:51;7.20;99.90
42187;DHT22;27858;51.414;0.018;2022-11-04T07:46:19;7.10;99.90
42187;DHT22;27858;51.414;0.018;2022-11-04T07:48:46;7.20;99.90
42187;DHT22;27858;51.414;0.018;2022-11-04T07:51:15;7.30;99.90
42187;DHT22;27858;51.414;0.018;2022-11-04T07:53:43;7.40;99.90
42187;DHT22;27858;51.414;0.018;2022-11-04T07:56:11;7.40;99.90
42187;DHT22;27858;51.414;0.018;2022-11-04T07:58:39;7.40;99.90
42187;DHT22;27858;51.414;0.018;2022-11-04T08:01:09;7.50;99.90
42187;DHT22;27858;51.414;0.018;2022-11-04T08:03:37;7.30;99.90
42187;DHT22;27858;51.414;0.018;2022-11-04T08:06:06;7.50;99.90
42187;DHT22;27858;51.414;0.018;2022-11-04T08:08:34;7.60;99.90
42187;DHT22;27858;51.414;0.018;2022-11-04T08:11:06;7.70;99.90
42187;DHT22;27858;51.414;0.018;2022-11-04T08:13:40;7.60;99.90
42187;DHT22;27858;51.414;0.018;2022-11-04T08:16:13;7.50;99.90
42187;DHT22;27858;51.414;0.018;2022-11-04T08:18:40;7.70;99.90
42187;DHT22;27858;51.414;0.018;2022-11-04T08:21:08;7.60;99.90
42187;DHT22;27858;51.414;0.018;2022-11-04T08:23:35;7.80;99.90
42187;DHT22;27858;51.414;0.018;2022-11-04T08:26:10;7.60;99.90
42187;DHT22;27858;51.414;0.018;2022-11-04T08:28:37;7.80;99.90
42187;DHT22;27858;51.414;0.018;2022-11-04T08:31:11;7.90;99.90
42187;DHT22;27858;51.414;0.018;2022-11-04T08:33:39;7.90;99.90
42187;DHT22;27858;51.414;0.018;2022-11-04T08:36:15;7.70;99.90
42187;DHT22;27858;51.414;0.018;2022-11-04T08:38:43;7.80;99.90
42187;DHT22;27858;51.414;0.018;2022-11-04T08:41:12;7.90;99.90
42187;DHT22;27858;51.414;0.018;2022-11-04T08:43:39;8.00;99.90
42187;DHT22;27858;51.414;0.018;2022-11-04T08:46:09;8.10;99.90
42187;DHT22;27858;51.414;0.018;2022-11-04T08:48:37;7.90;99.90
42187;DHT22;27858;51.414;0.018;2022-11-04T08:51:10;8.20;99.90
42187;DHT22;27858;51.414;0.018;2022-11-04T08:53:37;8.20;99.90
42187;DHT22;27858;51.414;0.018;2022-11-04T08:56:20;8.10;99.90
42187;DHT22;27858;51.414;0.018;2022-11-04T08:58:47;8.10;99.90
42187;DHT22;27858;51.414;0.018;2022-11-04T09:01:15;8.30;99.90
42187;DHT22;27858;51.414;0.018;2022-11-04T09:03:42;8.40;99.90
42187;DHT22;27858;51.414;0.018;2022-11-04T09:06:14;8.40;99.90
42187;DHT22;27858;51.414;0.018;2022-11-04T09:08:41;8.40;99.90
42187;DHT22;27858;51.414;0.018;2022-11-04T09:11:10;8.40;99.90
42187;DHT22;27858;51.414;0.018;2022-11-04T09:13:38;8.50;99.90
42187;DHT22;27858;51.414;0.018;2022-11-04T09:16:06;8.50;99.90
42187;DHT22;27858;51.414;0.018;2022-11-04T09:18:33;8.40;99.90
42187;DHT22;27858;51.414;0.018;2022-11-04T09:21:01;8.50;99.90
42187;DHT22;27858;51.414;0.018;2022-11-04T09:23:28;8.50;99.90
42187;DHT22;27858;51.414;0.018;2022-11-04T09:25:57;8.70;99.90
42187;DHT22;27858;51.414;0.018;2022-11-04T09:28:24;8.70;99.90
42187;DHT22;27858;51.414;0.018;2022-11-04T09:30:51;8.70;99.90
42187;DHT22;27858;51.414;0.018;2022-11-04T09:33:18;8.70;99.90
42187;DHT22;27858;51.414;0.018;2022-11-04T16:34:38;11.20;99.90
42187;DHT22;27858;51.414;0.018;2022-11-04T16:37:05;11.20;99.90
42187;DHT22;27858;51.414;0.018;2022-11-04T16:39:32;11.20;99.90
42187;DHT22;27858;51.414;0.018;2022-11-04T16:41:58;11.10;99.90
42187;DHT22;27858;51.414;0.018;2022-11-04T16:44:26;11.20;1.00
42187;DHT22;27858;51.414;0.018;2022-11-04T16:46:53;11.20;99.90
42187;DHT22;27858;51.414;0.018;2022-11-04T16:49:22;11.20;99.90
42187;DHT22;27858;51.414;0.018;2022-11-04T16:52:00;11.20;1.00
42187;DHT22;27858;51.414;0.018;2022-11-04T16:54:27;11.20;1.00
42187;DHT22;27858;51.414;0.018;2022-11-04T16:56:54;11.20;1.00
42187;DHT22;27858;51.414;0.018;2022-11-04T16:59:21;11.20;1.00
42187;DHT22;27858;51.414;0.018;2022-11-04T17:01:49;11.20;1.00
42187;DHT22;27858;51.414;0.018;2022-11-04T17:04:16;11.20;1.00
42187;DHT22;27858;51.414;0.018;2022-11-04T17:06:43;11.20;1.00
42187;DHT22;27858;51.414;0.018;2022-11-04T17:09:22;11.20;1.00
42187;DHT22;27858;51.414;0.018;2022-11-04T17:11:49;11.30;1.00
42187;DHT22;27858;51.414;0.018;2022-11-04T17:14:16;11.20;1.00
42187;DHT22;27858;51.414;0.018;2022-11-04T17:16:43;11.30;1.00
42187;DHT22;27858;51.414;0.018;2022-11-04T17:19:14;11.30;1.00
42187;DHT22;27858;51.414;0.018;2022-11-04T17:21:42;11.20;1.00
42187;DHT22;27858;51.414;0.018;2022-11-04T17:24:10;11.30;1.00
42187;DHT22;27858;51.414;0.018;2022-11-04T17:26:37;11.30;1.00
42187;DHT22;27858;51.414;0.018;2022-11-04T17:29:04;11.30;1.00
42187;DHT22;27858;51.414;0.018;2022-11-04T17:31:31;11.30;1.00
42187;DHT22;27858;51.414;0.018;2022-11-04T17:33:58;11.30;1.00
42187;DHT22;27858;51.414;0.018;2022-11-04T17:36:25;11.30;1.00
42187;DHT22;27858;51.414;0.018;2022-11-04T17:38:52;11.30;1.00
42187;DHT22;27858;51.414;0.018;2022-11-04T17:41:19;11.20;1.00
42187;DHT22;27858;51.414;0.018;2022-11-04T17:44:04;11.20;1.00
42187;DHT22;27858;51.414;0.018;2022-11-04T17:46:33;11.20;1.00
42187;DHT22;27858;51.414;0.018;2022-11-04T17:49:01;11.10;1.00
42187;DHT22;27858;51.414;0.018;2022-11-04T17:51:30;11.10;1.00
42187;DHT22;27858;51.414;0.018;2022-11-04T17:53:57;11.00;1.00
42187;DHT22;27858;51.414;0.018;2022-11-04T17:56:24;11.00;1.00
42187;DHT22;27858;51.414;0.018;2022-11-04T17:58:51;10.90;1.00
42187;DHT22;27858;51.414;0.018;2022-11-04T18:01:21;10.90;1.00
42187;DHT22;27858;51.414;0.018;2022-11-04T18:03:50;10.80;1.00
42187;DHT22;27858;51.414;0.018;2022-11-04T18:06:19;10.80;1.00
42187;DHT22;27858;51.414;0.018;2022-11-04T18:08:46;10.80;1.00
42187;DHT22;27858;51.414;0.018;2022-11-04T18:11:14;10.70;1.00
42187;DHT22;27858;51.414;0.018;2022-11-04T18:14:01;10.70;1.00
42187;DHT22;27858;51.414;0.018;2022-11-04T18:16:28;10.60;1.00
42187;DHT22;27858;51.414;0.018;2022-11-04T18:18:59;10.50;1.00
42187;DHT22;27858;51.414;0.018;2022-11-04T18:21:27;10.50;1.00
42187;DHT22;27858;51.414;0.018;2022-11-04T18:23:54;10.40;1.00
42187;DHT22;27858;51.414;0.018;2022-11-04T18:26:21;10.40;1.00
42187;DHT22;27858;51.414;0.018;2022-11-04T18:28:48;10.40;1.00
42187;DHT22;27858;51.414;0.018;2022-11-04T18:31:36;10.30;1.00
42187;DHT22;27858;51.414;0.018;2022-11-04T18:34:05;10.40;1.00
42187;DHT22;27858;51.414;0.018;2022-11-04T18:36:36;10.30;1.00
42187;DHT22;27858;51.414;0.018;2022-11-04T18:39:05;10.30;1.00
42187;DHT22;27858;51.414;0.018;2022-11-04T18:41:35;10.20;1.00
42187;DHT22;27858;51.414;0.018;2022-11-04T18:44:01;10.20;1.00
42187;DHT22;27858;51.414;0.018;2022-11-04T18:46:30;10.10;1.00
42187;DHT22;27858;51.414;0.018;2022-11-04T18:48:57;10.20;1.00
42187;DHT22;27858;51.414;0.018;2022-11-04T18:51:25;10.10;1.00
42187;DHT22;27858;51.414;0.018;2022-11-04T18:53:52;10.20;1.00
42187;DHT22;27858;51.414;0.018;2022-11-04T18:56:20;10.20;1.00
42187;DHT22;27858;51.414;0.018;2022-11-04T18:58:47;10.10;1.00
42187;DHT22;27858;51.414;0.018;2022-11-04T19:01:18;10.10;1.00
42187;DHT22;27858;51.414;0.018;2022-11-04T19:03:46;10.10;1.00
42187;DHT22;27858;51.414;0.018;2022-11-04T19:06:17;10.10;1.00
42187;DHT22;27858;51.414;0.018;2022-11-04T19:08:44;10.00;1.00
42187;DHT22;27858;51.414;0.018;2022-11-04T19:11:20;10.00;1.00
42187;DHT22;27858;51.414;0.018;2022-11-04T19:13:59;10.00;1.90
42187;DHT22;27858;51.414;0.018;2022-11-04T19:16:33;9.90;2.00
42187;DHT22;27858;51.414;0.018;2022-11-04T19:19:04;9.90;4.80
42187;DHT22;27858;51.414;0.018;2022-11-04T19:21:32;9.80;5.60
42187;DHT22;27858;51.414;0.018;2022-11-04T19:23:59;9.80;9.30
42187;DHT22;27858;51.414;0.018;2022-11-04T19:26:30;9.70;10.00
42187;DHT22;27858;51.414;0.018;2022-11-04T19:28:57;9.70;14.40
42187;DHT22;27858;51.414;0.018;2022-11-04T19:31:28;9.60;20.20
42187;DHT22;27858;51.414;0.018;2022-11-04T19:33:59;9.60;21.60
42187;DHT22;27858;51.414;0.018;2022-11-04T19:36:31;9.60;24.60
42187;DHT22;27858;51.414;0.018;2022-11-04T19:38:58;9.60;27.30
42187;DHT22;27858;51.414;0.018;2022-11-04T19:41:26;9.60;30.30
42187;DHT22;27858;51.414;0.018;2022-11-04T19:44:13;9.50;32.70
42187;DHT22;27858;51.414;0.018;2022-11-04T19:46:41;9.40;36.50
42187;DHT22;27858;51.414;0.018;2022-11-04T19:49:09;9.50;42.80
42187;DHT22;27858;51.414;0.018;2022-11-04T19:51:38;9.40;49.80
42187;DHT22;27858;51.414;0.018;2022-11-04T19:54:05;9.40;56.00
42187;DHT22;27858;51.414;0.018;2022-11-04T19:56:32;9.30;65.90
42187;DHT22;27858;51.414;0.018;2022-11-04T19:59:00;9.30;75.20
42187;DHT22;27858;51.414;0.018;2022-11-04T20:01:32;9.20;80.30
42187;DHT22;27858;51.414;0.018;2022-11-04T20:04:01;9.20;83.60
42187;DHT22;27858;51.414;0.018;2022-11-04T20:06:29;9.10;84.20
42187;DHT22;27858;51.414;0.018;2022-11-04T20:09:00;9.10;91.00
42187;DHT22;27858;51.414;0.018;2022-11-04T20:11:27;9.10;86.30
42187;DHT22;27858;51.414;0.018;2022-11-04T20:13:54;9.10;80.60
42187;DHT22;27858;51.414;0.018;2022-11-04T20:16:22;9.00;74.20
42187;DHT22;27858;51.414;0.018;2022-11-04T20:18:52;9.00;71.10
42187;DHT22;27858;51.414;0.018;2022-11-04T20:21:24;9.00;69.80
42187;DHT22;27858;51.414;0.018;2022-11-04T20:23:55;9.00;70.20
42187;DHT22;27858;51.414;0.018;2022-11-04T20:26:22;9.00;67.10
42187;DHT22;27858;51.414;0.018;2022-11-04T20:28:51;8.90;69.80
42187;DHT22;27858;51.414;0.018;2022-11-04T20:31:21;8.90;76.80
42187;DHT22;27858;51.414;0.018;2022-11-04T20:33:50;8.90;84.40
42187;DHT22;27858;51.414;0.018;2022-11-04T20:36:20;8.90;91.20
42187;DHT22;27858;51.414;0.018;2022-11-04T20:38:47;8.80;93.50
42187;DHT22;27858;51.414;0.018;2022-11-04T20:41:15;8.70;94.30
42187;DHT22;27858;51.414;0.018;2022-11-04T20:43:46;8.70;97.10
42187;DHT22;27858;51.414;0.018;2022-11-04T20:46:22;8.70;98.70
42187;DHT22;27858;51.414;0.018;2022-11-04T20:48:50;8.60;98.90
42187;DHT22;27858;51.414;0.018;2022-11-04T20:51:19;8.60;99.90
42187;DHT22;27858;51.414;0.018;2022-11-04T20:53:48;8.60;99.90
42187;DHT22;27858;51.414;0.018;2022-11-04T20:56:16;8.60;99.90
42187;DHT22;27858;51.414;0.018;2022-11-04T20:58:44;8.60;99.90
42187;DHT22;27858;51.414;0.018;2022-11-04T21:01:17;8.50;99.90
42187;DHT22;27858;51.414;0.018;2022-11-04T21:03:47;8.50;99.90
42187;DHT22;27858;51.414;0.018;2022-11-04T21:06:13;8.50;99.90
42187;DHT22;27858;51.414;0.018;2022-11-04T21:08:40;8.50;99.90
42187;DHT22;27858;51.414;0.018;2022-11-04T21:11:07;8.40;99.90
42187;DHT22;27858;51.414;0.018;2022-11-04T21:13:34;8.40;99.90
42187;DHT22;27858;51.414;0.018;2022-11-04T21:16:01;8.40;99.90
42187;DHT22;27858;51.414;0.018;2022-11-04T21:18:28;8.40;99.90
42187;DHT22;27858;51.414;0.018;2022-11-04T21:20:55;8.30;99.90
42187;DHT22;27858;51.414;0.018;2022-11-04T21:23:23;8.30;99.90
42187;DHT22;27858;51.414;0.018;2022-11-04T21:25:56;8.30;99.90
42187;DHT22;27858;51.414;0.018;2022-11-04T21:28:24;8.30;99.90
42187;DHT22;27858;51.414;0.018;2022-11-04T21:30:52;8.30;99.90
42187;DHT22;27858;51.414;0.018;2022-11-04T21:33:20;8.30;99.90
42187;DHT22;27858;51.414;0.018;2022-11-04T21:35:47;8.30;99.90
42187;DHT22;27858;51.414;0.018;2022-11-04T21:38:15;8.20;99.90
42187;DHT22;27858;51.414;0.018;2022-11-04T21:40:43;8.20;99.90
42187;DHT22;27858;51.414;0.018;2022-11-04T21:43:11;8.20;99.90
42187;DHT22;27858;51.414;0.018;2022-11-04T21:45:37;8.20;99.90
42187;DHT22;27858;51.414;0.018;2022-11-04T21:48:05;8.10;99.90
42187;DHT22;27858;51.414;0.018;2022-11-04T21:50:31;8.10;99.90
42187;DHT22;27858;51.414;0.018;2022-11-04T21:52:58;8.10;99.90
42187;DHT22;27858;51.414;0.018;2022-11-04T21:55:25;8.10;99.90
42187;DHT22;27858;51.414;0.018;2022-11-04T21:57:52;8.10;99.90
42187;DHT22;27858;51.414;0.018;2022-11-04T22:00:19;8.00;99.90
42187;DHT22;27858;51.414;0.018;2022-11-04T22:02:45;8.10;99.90
42187;DHT22;27858;51.414;0.018;2022-11-04T22:05:19;8.00;99.90
42187;DHT22;27858;51.414;0.018;2022-11-04T22:07:46;8.00;99.90
42187;DHT22;27858;51.414;0.018;2022-11-04T22:10:34;8.00;99.90
42187;DHT22;27858;51.414;0.018;2022-11-04T22:13:01;8.00;99.90
42187;DHT22;27858;51.414;0.018;2022-11-04T22:15:29;8.00;99.90
42187;DHT22;27858;51.414;0.018;2022-11-04T22:18:15;7.90;99.90
42187;DHT22;27858;51.414;0.018;2022-11-04T22:20:42;7.90;99.90
42187;DHT22;27858;51.414;0.018;2022-11-04T22:23:08;7.80;99.90
42187;DHT22;27858;51.414;0.018;2022-11-04T22:25:36;7.90;99.90
42187;DHT22;27858;51.414;0.018;2022-11-04T22:28:03;7.90;99.90
42187;DHT22;27858;51.414;0.018;2022-11-04T22:30:30;7.80;99.90
42187;DHT22;27858;51.414;0.018;2022-11-04T22:32:56;7.80;99.90
42187;DHT22;27858;51.414;0.018;2022-11-04T22:35:23;7.80;99.90
42187;DHT22;27858;51.414;0.018;2022-11-04T22:37:50;7.80;99.90
42187;DHT22;27858;51.414;0.018;2022-11-04T22:40:17;7.70;99.90
42187;DHT22;27858;51.414;0.018;2022-11-04T22:42:44;7.70;99.90
42187;DHT22;27858;51.414;0.018;2022-11-04T22:45:10;7.80;99.90
42187;DHT22;27858;51.414;0.018;2022-11-04T22:47:42;7.70;99.90
42187;DHT22;27858;51.414;0.018;2022-11-04T22:50:09;7.70;99.90
42187;DHT22;27858;51.414;0.018;2022-11-04T22:52:36;7.70;99.90
42187;DHT22;27858;51.414;0.018;2022-11-04T22:55:16;7.70;99.90
42187;DHT22;27858;51.414;0.018;2022-11-04T22:57:43;7.60;99.90
42187;DHT22;27858;51.414;0.018;2022-11-04T23:00:10;7.60;99.90
42187;DHT22;27858;51.414;0.018;2022-11-04T23:02:37;7.60;99.90
42187;DHT22;27858;51.414;0.018;2022-11-04T23:05:05;7.60;99.90
42187;DHT22;27858;51.414;0.018;2022-11-04T23:07:32;7.60;99.90
42187;DHT22;27858;51.414;0.018;2022-11-04T23:09:59;7.60;99.90
42187;DHT22;27858;51.414;0.018;2022-11-04T23:12:44;7.50;99.90
42187;DHT22;27858;51.414;0.018;2022-11-04T23:15:30;7.50;99.90
42187;DHT22;27858;51.414;0.018;2022-11-04T23:18:29;7.50;99.90
42187;DHT22;27858;51.414;0.018;2022-11-04T23:21:14;7.50;99.90
42187;DHT22;27858;51.414;0.018;2022-11-04T23:23:59;7.50;99.90
42187;DHT22;27858;51.414;0.018;2022-11-04T23:26:45;7.40;99.90
42187;DHT22;27858;51.414;0.018;2022-11-04T23:29:14;7.40;99.90
42187;DHT22;27858;51.414;0.018;2022-11-04T23:31:59;7.40;99.90
42187;DHT22;27858;51.414;0.018;2022-11-04T23:34:26;7.40;99.90
42187;DHT22;27858;51.414;0.018;2022-11-04T23:37:12;7.30;99.90
42187;DHT22;27858;51.414;0.018;2022-11-04T23:39:47;7.30;99.90